Airfield :
LOGIN :

Register | Disclaimer

   EN    FR    IT 

 










Legend :    VFR   Marginal VFR   IFR   Intensive IFR   Very Intensive IFR
Visi :
Ceiling :
>= 8 km
>= 3000ft
5 to 8 km
1000 to 3000 ft
1500m to 5 km
500 to 1000 ft
800 to 1500m
200 to 500 ft
< 800m
< 200 ft
Symbols :   Thunderstorms  Fog  Heavy snow  Heavy precipitations  Wind > 20 kt
SIGMETs :     Misc.  Thunderstorms  Icing  Turbulence  Mountain Waves  Volcanic Ashes







- Airport Elevation : 1197 ft
- IATA code : SPM


ETAD - Spangdahlem Ab

CURRENT METAR :
  • 161656Z AUTO 00000KT 9999 CLR 27/12 A2996 RMK AO2 SLP124 T02700115 $

EXPIRED METARs :
  • 161556Z AUTO 21004KT 9999 CLR 28/12 A2997 RMK AO2 SLP127 T02750115 $
  • 161456Z AUTO 17003KT 9999 CLR 28/10 A2998 RMK AO2 SLP131 T02800097 57013 $

TAF AMD TAF ETAD
Valid from the 16 at 15:00 until the 17 at 17:00 UTC


161513Z 1615/1717 21009KT 9999 FEW050 QNH2997INS
BECMG 1618/1619 VRB06KT 9999 FEW020 SCT040 QNH2998INS
TEMPO 1705/1708 BKN010
BECMG 1708/1709 01012KT 8000 -SHRA BKN015 QNH3003INS
TEMPO 1710/1714 VRB10G15KT 6000 -TSRA BKN015CB
BECMG 1714/1715 36010G15KT 9999 NSW SCT015 BKN025 QNH3005INS TX30/1615Z TN12/1704Z
No reported NOTAMs for that airfield.



MET'MAP, your aeronautical weather chart ! - Copyright ORBIFLY December 2007 - Disclaimer

ORBIFLY MET'MAP TEAM :

Programming & Development : Alexandra Zaïnal
Concept & Development : Baudouin d'Aumeries
Co-Development & Prog : Marc-Olivier Méhu
Technical & hardware support : Manuel Goepfert

Contact : metmap@orbifly.com




SOURCES & CREDITS :

   NOAA